Terminal Aerodrome Forecast
Issued by NWS

Home | Current Version | Previous Version | Text Only | Print | Product List | Glossary On
Versions: 1 2 3 4 5 6 7 8 9 10 11 12 13 14
000
FTUS43 KDVN 011100
TAFCID
TAF
KCID 011130Z 0112/0212 23003KT P6SM SCT080
      TEMPO 0112/0113 5SM BR
     FM011500 26005KT P6SM SCT040 SCT150
     FM020900 VRB02KT 3SM BR SCT150=

USA.gov is the U.S. government's official web portal to all federal, state and local government web resources and services.